sensor_id;sensor_type;location;lat;lon;timestamp;temperature;humidity
21171;DHT22;10743;52.160;20.910;2022-09-02T00:02:14;28.50;32.10
21171;DHT22;10743;52.160;20.910;2022-09-02T00:04:43;28.50;32.10
21171;DHT22;10743;52.160;20.910;2022-09-02T00:07:10;28.40;31.90
21171;DHT22;10743;52.160;20.910;2022-09-02T00:09:37;28.40;31.80
21171;DHT22;10743;52.160;20.910;2022-09-02T00:12:07;28.40;31.70
21171;DHT22;10743;52.160;20.910;2022-09-02T00:14:36;28.40;31.70
21171;DHT22;10743;52.160;20.910;2022-09-02T00:17:05;28.40;31.70
21171;DHT22;10743;52.160;20.910;2022-09-02T00:19:32;28.40;31.70
21171;DHT22;10743;52.160;20.910;2022-09-02T00:22:00;28.30;31.80
21171;DHT22;10743;52.160;20.910;2022-09-02T00:24:28;28.30;31.90
21171;DHT22;10743;52.160;20.910;2022-09-02T00:26:55;28.30;32.10
21171;DHT22;10743;52.160;20.910;2022-09-02T00:29:24;28.30;32.30
21171;DHT22;10743;52.160;20.910;2022-09-02T00:31:52;28.20;32.10
21171;DHT22;10743;52.160;20.910;2022-09-02T00:34:20;28.20;32.20
21171;DHT22;10743;52.160;20.910;2022-09-02T00:36:47;28.20;32.30
21171;DHT22;10743;52.160;20.910;2022-09-02T00:39:14;28.10;32.40
21171;DHT22;10743;52.160;20.910;2022-09-02T00:41:43;28.10;32.20
21171;DHT22;10743;52.160;20.910;2022-09-02T00:44:14;28.10;32.50
21171;DHT22;10743;52.160;20.910;2022-09-02T00:46:42;28.10;32.30
21171;DHT22;10743;52.160;20.910;2022-09-02T00:49:19;28.10;32.30
21171;DHT22;10743;52.160;20.910;2022-09-02T00:54:47;28.10;32.20
21171;DHT22;10743;52.160;20.910;2022-09-02T00:57:18;28.10;32.30
21171;DHT22;10743;52.160;20.910;2022-09-02T01:02:40;28.10;32.10
21171;DHT22;10743;52.160;20.910;2022-09-02T01:05:11;28.20;32.20
21171;DHT22;10743;52.160;20.910;2022-09-02T01:07:41;28.30;32.30
21171;DHT22;10743;52.160;20.910;2022-09-02T01:10:13;28.30;32.20
21171;DHT22;10743;52.160;20.910;2022-09-02T01:12:42;28.30;32.00
21171;DHT22;10743;52.160;20.910;2022-09-02T01:15:10;28.40;31.80
21171;DHT22;10743;52.160;20.910;2022-09-02T01:17:43;28.50;31.90
21171;DHT22;10743;52.160;20.910;2022-09-02T01:20:16;28.50;31.70
21171;DHT22;10743;52.160;20.910;2022-09-02T01:22:52;28.60;31.80
21171;DHT22;10743;52.160;20.910;2022-09-02T01:25:24;28.60;31.70
21171;DHT22;10743;52.160;20.910;2022-09-02T01:28:05;28.70;31.80
21171;DHT22;10743;52.160;20.910;2022-09-02T01:30:35;28.80;31.60
21171;DHT22;10743;52.160;20.910;2022-09-02T01:33:03;28.80;31.40
21171;DHT22;10743;52.160;20.910;2022-09-02T01:35:31;28.90;31.40
21171;DHT22;10743;52.160;20.910;2022-09-02T01:37:58;28.90;31.30
21171;DHT22;10743;52.160;20.910;2022-09-02T01:40:28;28.90;31.30
21171;DHT22;10743;52.160;20.910;2022-09-02T01:42:59;28.90;31.60
21171;DHT22;10743;52.160;20.910;2022-09-02T01:45:35;28.90;31.50
21171;DHT22;10743;52.160;20.910;2022-09-02T01:48:05;28.90;31.70
21171;DHT22;10743;52.160;20.910;2022-09-02T01:50:35;28.90;31.50
21171;DHT22;10743;52.160;20.910;2022-09-02T01:53:13;28.90;31.70
21171;DHT22;10743;52.160;20.910;2022-09-02T01:55:41;28.90;31.60
21171;DHT22;10743;52.160;20.910;2022-09-02T01:58:08;28.80;31.50
21171;DHT22;10743;52.160;20.910;2022-09-02T02:00:35;28.80;31.50
21171;DHT22;10743;52.160;20.910;2022-09-02T02:03:04;28.80;31.60
21171;DHT22;10743;52.160;20.910;2022-09-02T02:05:32;28.80;31.70
21171;DHT22;10743;52.160;20.910;2022-09-02T02:08:01;28.80;31.70
21171;DHT22;10743;52.160;20.910;2022-09-02T02:10:30;28.70;31.80
21171;DHT22;10743;52.160;20.910;2022-09-02T02:12:59;28.70;31.80
21171;DHT22;10743;52.160;20.910;2022-09-02T02:15:30;28.60;31.70
21171;DHT22;10743;52.160;20.910;2022-09-02T02:17:56;28.60;31.70
21171;DHT22;10743;52.160;20.910;2022-09-02T02:20:24;28.60;31.70
21171;DHT22;10743;52.160;20.910;2022-09-02T02:22:52;28.60;31.80
21171;DHT22;10743;52.160;20.910;2022-09-02T02:25:19;28.50;31.80
21171;DHT22;10743;52.160;20.910;2022-09-02T02:27:50;28.50;32.00
21171;DHT22;10743;52.160;20.910;2022-09-02T02:30:20;28.50;32.00
21171;DHT22;10743;52.160;20.910;2022-09-02T02:32:47;28.50;32.60
21171;DHT22;10743;52.160;20.910;2022-09-02T02:35:17;28.40;32.00
21171;DHT22;10743;52.160;20.910;2022-09-02T02:37:47;28.40;32.10
21171;DHT22;10743;52.160;20.910;2022-09-02T02:40:19;28.30;32.20
21171;DHT22;10743;52.160;20.910;2022-09-02T02:42:49;28.30;32.20
21171;DHT22;10743;52.160;20.910;2022-09-02T02:45:20;28.20;32.10
21171;DHT22;10743;52.160;20.910;2022-09-02T02:47:48;28.20;32.20
21171;DHT22;10743;52.160;20.910;2022-09-02T02:50:18;28.10;32.30
21171;DHT22;10743;52.160;20.910;2022-09-02T02:52:47;28.10;32.50
21171;DHT22;10743;52.160;20.910;2022-09-02T02:55:17;28.00;32.40
21171;DHT22;10743;52.160;20.910;2022-09-02T02:57:44;28.00;32.50
21171;DHT22;10743;52.160;20.910;2022-09-02T03:00:15;27.90;32.60
21171;DHT22;10743;52.160;20.910;2022-09-02T03:02:48;27.90;32.60
21171;DHT22;10743;52.160;20.910;2022-09-02T03:05:19;27.80;32.60
21171;DHT22;10743;52.160;20.910;2022-09-02T03:07:46;27.70;32.70
21171;DHT22;10743;52.160;20.910;2022-09-02T03:10:15;27.70;33.10
21171;DHT22;10743;52.160;20.910;2022-09-02T03:12:43;27.70;32.90
21171;DHT22;10743;52.160;20.910;2022-09-02T03:15:17;27.60;33.10
21171;DHT22;10743;52.160;20.910;2022-09-02T03:17:47;27.60;33.20
21171;DHT22;10743;52.160;20.910;2022-09-02T03:20:15;27.60;33.10
21171;DHT22;10743;52.160;20.910;2022-09-02T03:22:48;27.50;33.20
21171;DHT22;10743;52.160;20.910;2022-09-02T03:25:18;27.50;33.30
21171;DHT22;10743;52.160;20.910;2022-09-02T03:27:48;27.50;33.30
21171;DHT22;10743;52.160;20.910;2022-09-02T03:30:22;27.50;33.40
21171;DHT22;10743;52.160;20.910;2022-09-02T03:32:52;27.40;33.40
21171;DHT22;10743;52.160;20.910;2022-09-02T03:35:22;27.40;33.40
21171;DHT22;10743;52.160;20.910;2022-09-02T03:37:50;27.40;33.50
21171;DHT22;10743;52.160;20.910;2022-09-02T03:40:20;27.40;33.50
21171;DHT22;10743;52.160;20.910;2022-09-02T03:42:52;27.40;33.40
21171;DHT22;10743;52.160;20.910;2022-09-02T03:45:26;27.40;33.40
21171;DHT22;10743;52.160;20.910;2022-09-02T03:47:54;27.40;33.40
21171;DHT22;10743;52.160;20.910;2022-09-02T03:50:28;27.40;33.40
21171;DHT22;10743;52.160;20.910;2022-09-02T03:52:59;27.40;33.40
21171;DHT22;10743;52.160;20.910;2022-09-02T03:55:28;27.40;33.40
21171;DHT22;10743;52.160;20.910;2022-09-02T03:57:55;27.40;33.30
21171;DHT22;10743;52.160;20.910;2022-09-02T04:00:25;27.40;33.30
21171;DHT22;10743;52.160;20.910;2022-09-02T04:03:00;27.40;33.30
21171;DHT22;10743;52.160;20.910;2022-09-02T04:05:28;27.40;33.50
21171;DHT22;10743;52.160;20.910;2022-09-02T04:07:57;27.50;33.70
21171;DHT22;10743;52.160;20.910;2022-09-02T04:10:25;27.50;33.60
21171;DHT22;10743;52.160;20.910;2022-09-02T04:12:53;27.50;33.50
21171;DHT22;10743;52.160;20.910;2022-09-02T04:15:21;27.50;33.60
21171;DHT22;10743;52.160;20.910;2022-09-02T04:17:49;27.50;33.50
21171;DHT22;10743;52.160;20.910;2022-09-02T04:20:18;27.50;33.40
21171;DHT22;10743;52.160;20.910;2022-09-02T04:22:46;27.50;33.60
21171;DHT22;10743;52.160;20.910;2022-09-02T04:25:14;27.50;33.60
21171;DHT22;10743;52.160;20.910;2022-09-02T04:27:42;27.50;33.60
21171;DHT22;10743;52.160;20.910;2022-09-02T04:30:09;27.50;33.90
21171;DHT22;10743;52.160;20.910;2022-09-02T04:32:38;27.50;33.90
21171;DHT22;10743;52.160;20.910;2022-09-02T04:35:07;27.50;33.90
21171;DHT22;10743;52.160;20.910;2022-09-02T04:37:35;27.50;34.00
21171;DHT22;10743;52.160;20.910;2022-09-02T04:40:03;27.50;34.10
21171;DHT22;10743;52.160;20.910;2022-09-02T04:42:32;27.60;33.90
21171;DHT22;10743;52.160;20.910;2022-09-02T04:44:59;27.60;34.00
21171;DHT22;10743;52.160;20.910;2022-09-02T04:47:27;27.60;34.90
21171;DHT22;10743;52.160;20.910;2022-09-02T04:49:55;27.70;34.20
21171;DHT22;10743;52.160;20.910;2022-09-02T04:52:23;27.70;34.30
21171;DHT22;10743;52.160;20.910;2022-09-02T04:54:52;27.80;34.00
21171;DHT22;10743;52.160;20.910;2022-09-02T04:57:19;27.80;34.00
21171;DHT22;10743;52.160;20.910;2022-09-02T04:59:46;27.80;33.90
21171;DHT22;10743;52.160;20.910;2022-09-02T05:02:13;27.80;33.90
21171;DHT22;10743;52.160;20.910;2022-09-02T05:04:41;27.80;33.80
21171;DHT22;10743;52.160;20.910;2022-09-02T05:07:16;27.90;33.70
21171;DHT22;10743;52.160;20.910;2022-09-02T05:09:46;27.90;33.50
21171;DHT22;10743;52.160;20.910;2022-09-02T05:12:16;27.90;33.30
21171;DHT22;10743;52.160;20.910;2022-09-02T05:14:50;28.00;33.40
21171;DHT22;10743;52.160;20.910;2022-09-02T05:17:19;28.10;33.40
21171;DHT22;10743;52.160;20.910;2022-09-02T05:19:48;28.10;33.30
21171;DHT22;10743;52.160;20.910;2022-09-02T05:22:15;28.20;33.60
21171;DHT22;10743;52.160;20.910;2022-09-02T05:24:43;28.20;33.40
21171;DHT22;10743;52.160;20.910;2022-09-02T05:27:13;28.30;33.40
21171;DHT22;10743;52.160;20.910;2022-09-02T05:29:43;28.40;33.40
21171;DHT22;10743;52.160;20.910;2022-09-02T05:32:12;28.40;33.40
21171;DHT22;10743;52.160;20.910;2022-09-02T05:34:41;28.50;33.10
21171;DHT22;10743;52.160;20.910;2022-09-02T05:37:10;28.60;33.00
21171;DHT22;10743;52.160;20.910;2022-09-02T05:39:37;28.60;32.80
21171;DHT22;10743;52.160;20.910;2022-09-02T05:42:06;28.70;32.80
21171;DHT22;10743;52.160;20.910;2022-09-02T05:44:35;28.70;32.60
21171;DHT22;10743;52.160;20.910;2022-09-02T05:47:04;28.80;32.70
21171;DHT22;10743;52.160;20.910;2022-09-02T05:49:31;28.90;32.70
21171;DHT22;10743;52.160;20.910;2022-09-02T05:52:04;28.90;32.60
21171;DHT22;10743;52.160;20.910;2022-09-02T05:54:39;29.00;32.50
21171;DHT22;10743;52.160;20.910;2022-09-02T05:57:13;29.10;32.60
21171;DHT22;10743;52.160;20.910;2022-09-02T05:59:50;29.10;32.40
21171;DHT22;10743;52.160;20.910;2022-09-02T06:02:25;29.20;32.40
21171;DHT22;10743;52.160;20.910;2022-09-02T06:04:54;29.20;32.20
21171;DHT22;10743;52.160;20.910;2022-09-02T06:07:23;29.30;32.10
21171;DHT22;10743;52.160;20.910;2022-09-02T06:09:52;29.30;32.10
21171;DHT22;10743;52.160;20.910;2022-09-02T06:12:23;29.40;32.20
21171;DHT22;10743;52.160;20.910;2022-09-02T06:14:52;29.40;32.10
21171;DHT22;10743;52.160;20.910;2022-09-02T06:17:20;29.40;32.30
21171;DHT22;10743;52.160;20.910;2022-09-02T06:19:50;29.50;32.20
21171;DHT22;10743;52.160;20.910;2022-09-02T06:22:21;29.50;32.50
21171;DHT22;10743;52.160;20.910;2022-09-02T06:24:48;29.50;32.50
21171;DHT22;10743;52.160;20.910;2022-09-02T06:27:19;29.60;32.50
21171;DHT22;10743;52.160;20.910;2022-09-02T06:29:50;29.60;32.50
21171;DHT22;10743;52.160;20.910;2022-09-02T06:32:19;29.70;32.20
21171;DHT22;10743;52.160;20.910;2022-09-02T06:34:49;29.70;32.00
21171;DHT22;10743;52.160;20.910;2022-09-02T06:37:16;29.80;32.30
21171;DHT22;10743;52.160;20.910;2022-09-02T06:39:43;29.80;32.10
21171;DHT22;10743;52.160;20.910;2022-09-02T06:42:18;29.90;31.90
21171;DHT22;10743;52.160;20.910;2022-09-02T06:45:08;29.90;32.20
21171;DHT22;10743;52.160;20.910;2022-09-02T06:47:36;30.00;31.90
21171;DHT22;10743;52.160;20.910;2022-09-02T06:50:04;30.00;31.60
21171;DHT22;10743;52.160;20.910;2022-09-02T06:52:31;30.00;31.60
21171;DHT22;10743;52.160;20.910;2022-09-02T06:54:59;30.10;31.60
21171;DHT22;10743;52.160;20.910;2022-09-02T06:57:26;30.20;31.70
21171;DHT22;10743;52.160;20.910;2022-09-02T07:00:05;30.20;32.30
21171;DHT22;10743;52.160;20.910;2022-09-02T07:02:33;30.30;31.40
21171;DHT22;10743;52.160;20.910;2022-09-02T07:05:02;30.30;31.80
21171;DHT22;10743;52.160;20.910;2022-09-02T07:07:38;30.30;32.10
21171;DHT22;10743;52.160;20.910;2022-09-02T07:10:11;30.30;31.40
21171;DHT22;10743;52.160;20.910;2022-09-02T07:12:42;30.40;31.20
21171;DHT22;10743;52.160;20.910;2022-09-02T07:15:13;30.40;31.10
21171;DHT22;10743;52.160;20.910;2022-09-02T07:17:41;30.40;31.00
21171;DHT22;10743;52.160;20.910;2022-09-02T07:20:17;30.40;31.00
21171;DHT22;10743;52.160;20.910;2022-09-02T07:22:50;30.50;31.10
21171;DHT22;10743;52.160;20.910;2022-09-02T07:25:24;30.50;30.80
21171;DHT22;10743;52.160;20.910;2022-09-02T07:27:52;30.60;30.80
21171;DHT22;10743;52.160;20.910;2022-09-02T07:30:20;30.70;30.80
21171;DHT22;10743;52.160;20.910;2022-09-02T07:32:54;30.70;31.00
21171;DHT22;10743;52.160;20.910;2022-09-02T07:35:24;30.70;30.90
21171;DHT22;10743;52.160;20.910;2022-09-02T07:37:51;30.80;30.90
21171;DHT22;10743;52.160;20.910;2022-09-02T07:40:20;30.70;30.70
21171;DHT22;10743;52.160;20.910;2022-09-02T07:42:48;30.80;31.10
21171;DHT22;10743;52.160;20.910;2022-09-02T07:45:17;30.90;30.70
21171;DHT22;10743;52.160;20.910;2022-09-02T07:47:44;30.80;30.50
21171;DHT22;10743;52.160;20.910;2022-09-02T07:50:14;30.90;30.60
21171;DHT22;10743;52.160;20.910;2022-09-02T07:52:52;31.00;30.20
21171;DHT22;10743;52.160;20.910;2022-09-02T07:55:24;31.10;30.10
21171;DHT22;10743;52.160;20.910;2022-09-02T07:57:52;31.10;30.10
21171;DHT22;10743;52.160;20.910;2022-09-02T08:00:21;31.20;30.00
21171;DHT22;10743;52.160;20.910;2022-09-02T08:02:50;31.20;30.00
21171;DHT22;10743;52.160;20.910;2022-09-02T08:05:25;31.30;29.90
21171;DHT22;10743;52.160;20.910;2022-09-02T08:07:52;31.30;29.90
21171;DHT22;10743;52.160;20.910;2022-09-02T08:10:20;31.40;30.10
21171;DHT22;10743;52.160;20.910;2022-09-02T08:12:49;31.50;30.00
21171;DHT22;10743;52.160;20.910;2022-09-02T08:15:17;31.50;29.90
21171;DHT22;10743;52.160;20.910;2022-09-02T08:17:47;31.60;30.00
21171;DHT22;10743;52.160;20.910;2022-09-02T08:20:15;31.60;29.90
21171;DHT22;10743;52.160;20.910;2022-09-02T08:22:43;31.60;29.50
21171;DHT22;10743;52.160;20.910;2022-09-02T08:25:21;31.60;29.20
21171;DHT22;10743;52.160;20.910;2022-09-02T08:27:48;31.70;29.00
21171;DHT22;10743;52.160;20.910;2022-09-02T08:30:15;31.70;29.20
21171;DHT22;10743;52.160;20.910;2022-09-02T08:32:42;31.70;28.80
21171;DHT22;10743;52.160;20.910;2022-09-02T08:35:10;31.80;29.20
21171;DHT22;10743;52.160;20.910;2022-09-02T08:37:37;31.80;28.90
21171;DHT22;10743;52.160;20.910;2022-09-02T08:40:07;31.90;29.00
21171;DHT22;10743;52.160;20.910;2022-09-02T08:42:54;32.00;28.70
21171;DHT22;10743;52.160;20.910;2022-09-02T08:48:10;32.20;28.50
21171;DHT22;10743;52.160;20.910;2022-09-02T08:50:51;32.20;28.20
21171;DHT22;10743;52.160;20.910;2022-09-02T08:53:43;32.30;28.20
21171;DHT22;10743;52.160;20.910;2022-09-02T08:56:15;32.40;28.10
21171;DHT22;10743;52.160;20.910;2022-09-02T08:58:47;32.40;27.90
21171;DHT22;10743;52.160;20.910;2022-09-02T09:13:02;32.70;27.40
21171;DHT22;10743;52.160;20.910;2022-09-02T09:18:19;32.80;26.50
21171;DHT22;10743;52.160;20.910;2022-09-02T09:21:00;32.90;26.70
21171;DHT22;10743;52.160;20.910;2022-09-02T09:23:36;32.90;26.60
21171;DHT22;10743;52.160;20.910;2022-09-02T09:28:45;33.00;25.30
21171;DHT22;10743;52.160;20.910;2022-09-02T09:31:17;33.10;24.50
21171;DHT22;10743;52.160;20.910;2022-09-02T09:34:07;33.10;24.00
21171;DHT22;10743;52.160;20.910;2022-09-02T09:39:28;33.20;24.60
21171;DHT22;10743;52.160;20.910;2022-09-02T09:41:58;33.20;24.40
21171;DHT22;10743;52.160;20.910;2022-09-02T09:44:37;33.30;25.00
21171;DHT22;10743;52.160;20.910;2022-09-02T09:47:14;33.20;24.40
21171;DHT22;10743;52.160;20.910;2022-09-02T09:50:09;33.20;24.50
21171;DHT22;10743;52.160;20.910;2022-09-02T09:52:37;33.20;23.60
21171;DHT22;10743;52.160;20.910;2022-09-02T09:55:31;33.30;24.20
21171;DHT22;10743;52.160;20.910;2022-09-02T09:58:07;33.30;24.80
21171;DHT22;10743;52.160;20.910;2022-09-02T10:00:36;33.30;24.90
21171;DHT22;10743;52.160;20.910;2022-09-02T10:03:05;33.40;24.60
21171;DHT22;10743;52.160;20.910;2022-09-02T10:05:39;33.40;24.60
21171;DHT22;10743;52.160;20.910;2022-09-02T10:10:57;33.50;24.70
21171;DHT22;10743;52.160;20.910;2022-09-02T10:13:29;33.60;24.90
21171;DHT22;10743;52.160;20.910;2022-09-02T10:21:37;33.70;24.40
21171;DHT22;10743;52.160;20.910;2022-09-02T10:24:44;33.80;24.50
21171;DHT22;10743;52.160;20.910;2022-09-02T10:28:03;33.80;25.00
21171;DHT22;10743;52.160;20.910;2022-09-02T10:30:46;33.90;24.60
21171;DHT22;10743;52.160;20.910;2022-09-02T10:34:02;34.00;24.00
21171;DHT22;10743;52.160;20.910;2022-09-02T10:37:03;34.00;24.10
21171;DHT22;10743;52.160;20.910;2022-09-02T10:48:39;34.20;23.60
21171;DHT22;10743;52.160;20.910;2022-09-02T10:51:19;34.30;23.70
21171;DHT22;10743;52.160;20.910;2022-09-02T10:56:54;34.30;23.30
21171;DHT22;10743;52.160;20.910;2022-09-02T10:59:29;34.40;22.90
21171;DHT22;10743;52.160;20.910;2022-09-02T11:02:20;34.40;23.20
21171;DHT22;10743;52.160;20.910;2022-09-02T11:05:32;34.50;23.60
21171;DHT22;10743;52.160;20.910;2022-09-02T11:11:16;34.50;22.40
21171;DHT22;10743;52.160;20.910;2022-09-02T11:17:02;34.60;23.50
21171;DHT22;10743;52.160;20.910;2022-09-02T11:22:39;34.80;23.00
21171;DHT22;10743;52.160;20.910;2022-09-02T11:25:39;34.80;23.10
21171;DHT22;10743;52.160;20.910;2022-09-02T11:31:17;34.90;23.00
21171;DHT22;10743;52.160;20.910;2022-09-02T11:36:36;35.10;22.70
21171;DHT22;10743;52.160;20.910;2022-09-02T11:39:11;35.10;22.70
21171;DHT22;10743;52.160;20.910;2022-09-02T11:48:11;35.30;22.20
21171;DHT22;10743;52.160;20.910;2022-09-02T11:53:29;35.40;22.30
21171;DHT22;10743;52.160;20.910;2022-09-02T11:56:18;35.40;22.30
21171;DHT22;10743;52.160;20.910;2022-09-02T11:58:48;35.50;22.90
21171;DHT22;10743;52.160;20.910;2022-09-02T12:01:22;35.60;22.00
21171;DHT22;10743;52.160;20.910;2022-09-02T12:03:55;35.60;21.60
21171;DHT22;10743;52.160;20.910;2022-09-02T12:09:54;35.60;21.70
21171;DHT22;10743;52.160;20.910;2022-09-02T12:17:43;35.70;22.40
21171;DHT22;10743;52.160;20.910;2022-09-02T12:31:48;35.90;22.10
21171;DHT22;10743;52.160;20.910;2022-09-02T12:48:16;36.40;22.10
21171;DHT22;10743;52.160;20.910;2022-09-02T12:51:03;36.50;22.90
21171;DHT22;10743;52.160;20.910;2022-09-02T12:53:45;36.50;21.70
21171;DHT22;10743;52.160;20.910;2022-09-02T12:58:47;36.60;21.60
21171;DHT22;10743;52.160;20.910;2022-09-02T13:01:32;36.70;21.50
21171;DHT22;10743;52.160;20.910;2022-09-02T13:04:29;36.70;21.60
21171;DHT22;10743;52.160;20.910;2022-09-02T13:11:04;36.80;21.20
21171;DHT22;10743;52.160;20.910;2022-09-02T13:17:25;36.80;21.20
21171;DHT22;10743;52.160;20.910;2022-09-02T13:20:38;36.80;21.30
21171;DHT22;10743;52.160;20.910;2022-09-02T13:32:42;36.50;21.50
21171;DHT22;10743;52.160;20.910;2022-09-02T13:35:18;36.50;21.30
21171;DHT22;10743;52.160;20.910;2022-09-02T13:37:57;36.40;21.20
21171;DHT22;10743;52.160;20.910;2022-09-02T13:40:32;36.40;21.20
21171;DHT22;10743;52.160;20.910;2022-09-02T13:45:39;36.30;21.20
21171;DHT22;10743;52.160;20.910;2022-09-02T13:48:14;36.20;21.00
21171;DHT22;10743;52.160;20.910;2022-09-02T13:50:48;36.20;21.00
21171;DHT22;10743;52.160;20.910;2022-09-02T13:56:24;36.20;21.70
21171;DHT22;10743;52.160;20.910;2022-09-02T13:58:56;36.20;21.90
21171;DHT22;10743;52.160;20.910;2022-09-02T14:01:28;36.10;23.10
21171;DHT22;10743;52.160;20.910;2022-09-02T14:04:02;36.20;22.10
21171;DHT22;10743;52.160;20.910;2022-09-02T14:06:37;36.10;21.70
21171;DHT22;10743;52.160;20.910;2022-09-02T14:09:10;36.10;21.60
21171;DHT22;10743;52.160;20.910;2022-09-02T14:11:45;36.00;21.60
21171;DHT22;10743;52.160;20.910;2022-09-02T14:14:20;36.00;21.50
21171;DHT22;10743;52.160;20.910;2022-09-02T14:16:49;36.00;21.70
21171;DHT22;10743;52.160;20.910;2022-09-02T14:21:57;35.90;21.60
21171;DHT22;10743;52.160;20.910;2022-09-02T14:24:27;35.90;22.70
21171;DHT22;10743;52.160;20.910;2022-09-02T14:26:56;35.80;21.90
21171;DHT22;10743;52.160;20.910;2022-09-02T14:29:26;35.80;22.10
21171;DHT22;10743;52.160;20.910;2022-09-02T14:32:14;35.80;21.90
21171;DHT22;10743;52.160;20.910;2022-09-02T14:34:48;35.80;21.80
21171;DHT22;10743;52.160;20.910;2022-09-02T14:37:53;35.80;22.00
21171;DHT22;10743;52.160;20.910;2022-09-02T14:40:32;35.70;22.20
21171;DHT22;10743;52.160;20.910;2022-09-02T14:43:02;35.60;22.40
21171;DHT22;10743;52.160;20.910;2022-09-02T14:45:32;35.60;22.90
21171;DHT22;10743;52.160;20.910;2022-09-02T14:48:08;35.60;22.90
21171;DHT22;10743;52.160;20.910;2022-09-02T14:50:36;35.50;22.70
21171;DHT22;10743;52.160;20.910;2022-09-02T14:53:06;35.50;24.30
21171;DHT22;10743;52.160;20.910;2022-09-02T14:55:47;35.40;23.90
21171;DHT22;10743;52.160;20.910;2022-09-02T14:58:17;35.30;22.90
21171;DHT22;10743;52.160;20.910;2022-09-02T15:00:54;35.30;23.20
21171;DHT22;10743;52.160;20.910;2022-09-02T15:03:22;35.30;23.10
21171;DHT22;10743;52.160;20.910;2022-09-02T15:05:50;35.20;23.20
21171;DHT22;10743;52.160;20.910;2022-09-02T15:08:18;35.20;22.80
21171;DHT22;10743;52.160;20.910;2022-09-02T15:10:45;35.20;23.10
21171;DHT22;10743;52.160;20.910;2022-09-02T15:13:24;35.30;22.90
21171;DHT22;10743;52.160;20.910;2022-09-02T15:15:54;35.30;23.10
21171;DHT22;10743;52.160;20.910;2022-09-02T15:18:22;35.30;22.80
21171;DHT22;10743;52.160;20.910;2022-09-02T15:20:50;35.30;22.50
21171;DHT22;10743;52.160;20.910;2022-09-02T15:23:17;35.30;22.40
21171;DHT22;10743;52.160;20.910;2022-09-02T15:25:45;35.30;22.30
21171;DHT22;10743;52.160;20.910;2022-09-02T15:28:12;35.30;22.50
21171;DHT22;10743;52.160;20.910;2022-09-02T15:30:40;35.30;22.40
21171;DHT22;10743;52.160;20.910;2022-09-02T15:33:07;35.30;22.20
21171;DHT22;10743;52.160;20.910;2022-09-02T15:35:42;35.30;22.40
21171;DHT22;10743;52.160;20.910;2022-09-02T15:38:09;35.30;22.20
21171;DHT22;10743;52.160;20.910;2022-09-02T15:40:36;35.30;22.50
21171;DHT22;10743;52.160;20.910;2022-09-02T15:43:03;35.40;22.20
21171;DHT22;10743;52.160;20.910;2022-09-02T15:45:30;35.30;22.30
21171;DHT22;10743;52.160;20.910;2022-09-02T15:47:57;35.30;22.40
21171;DHT22;10743;52.160;20.910;2022-09-02T15:50:25;35.30;22.20
21171;DHT22;10743;52.160;20.910;2022-09-02T15:52:54;35.30;22.40
21171;DHT22;10743;52.160;20.910;2022-09-02T15:55:21;35.30;22.30
21171;DHT22;10743;52.160;20.910;2022-09-02T15:57:55;35.30;22.50
21171;DHT22;10743;52.160;20.910;2022-09-02T16:00:22;35.30;22.40
21171;DHT22;10743;52.160;20.910;2022-09-02T16:02:54;35.20;22.70
21171;DHT22;10743;52.160;20.910;2022-09-02T16:05:23;35.20;22.60
21171;DHT22;10743;52.160;20.910;2022-09-02T16:07:53;35.20;22.80
21171;DHT22;10743;52.160;20.910;2022-09-02T16:10:21;35.20;22.80
21171;DHT22;10743;52.160;20.910;2022-09-02T16:12:48;35.20;22.80
21171;DHT22;10743;52.160;20.910;2022-09-02T16:15:15;35.20;22.80
21171;DHT22;10743;52.160;20.910;2022-09-02T16:17:42;35.10;22.70
21171;DHT22;10743;52.160;20.910;2022-09-02T16:20:09;35.10;22.80
21171;DHT22;10743;52.160;20.910;2022-09-02T16:22:37;35.10;23.00
21171;DHT22;10743;52.160;20.910;2022-09-02T16:25:04;35.10;22.80
21171;DHT22;10743;52.160;20.910;2022-09-02T16:27:31;35.00;23.00
21171;DHT22;10743;52.160;20.910;2022-09-02T16:30:18;35.00;22.90
21171;DHT22;10743;52.160;20.910;2022-09-02T16:32:46;34.90;23.40
21171;DHT22;10743;52.160;20.910;2022-09-02T16:35:13;34.90;24.20
21171;DHT22;10743;52.160;20.910;2022-09-02T16:37:40;34.80;24.40
21171;DHT22;10743;52.160;20.910;2022-09-02T16:40:08;34.80;24.60
21171;DHT22;10743;52.160;20.910;2022-09-02T16:42:35;34.80;24.20
21171;DHT22;10743;52.160;20.910;2022-09-02T16:45:04;34.70;24.80
21171;DHT22;10743;52.160;20.910;2022-09-02T16:47:32;34.70;24.30
21171;DHT22;10743;52.160;20.910;2022-09-02T16:49:59;34.60;24.40
21171;DHT22;10743;52.160;20.910;2022-09-02T16:52:26;34.60;24.60
21171;DHT22;10743;52.160;20.910;2022-09-02T16:54:53;34.50;24.70
21171;DHT22;10743;52.160;20.910;2022-09-02T16:57:20;34.40;24.90
21171;DHT22;10743;52.160;20.910;2022-09-02T16:59:47;34.40;25.00
21171;DHT22;10743;52.160;20.910;2022-09-02T17:02:15;34.40;25.20
21171;DHT22;10743;52.160;20.910;2022-09-02T17:04:42;34.30;25.30
21171;DHT22;10743;52.160;20.910;2022-09-02T17:07:09;34.30;25.30
21171;DHT22;10743;52.160;20.910;2022-09-02T17:09:36;34.30;25.30
21171;DHT22;10743;52.160;20.910;2022-09-02T17:12:03;34.20;25.00
21171;DHT22;10743;52.160;20.910;2022-09-02T17:14:30;34.20;25.20
21171;DHT22;10743;52.160;20.910;2022-09-02T17:16:57;34.20;25.40
21171;DHT22;10743;52.160;20.910;2022-09-02T17:19:24;34.10;24.80
21171;DHT22;10743;52.160;20.910;2022-09-02T17:21:57;34.10;24.90
21171;DHT22;10743;52.160;20.910;2022-09-02T17:24:25;34.10;25.10
21171;DHT22;10743;52.160;20.910;2022-09-02T17:26:57;34.10;25.20
21171;DHT22;10743;52.160;20.910;2022-09-02T17:29:26;34.10;24.90
21171;DHT22;10743;52.160;20.910;2022-09-02T17:32:18;34.00;25.30
21171;DHT22;10743;52.160;20.910;2022-09-02T17:34:46;34.00;25.30
21171;DHT22;10743;52.160;20.910;2022-09-02T17:37:14;34.00;25.00
21171;DHT22;10743;52.160;20.910;2022-09-02T17:39:41;34.00;24.90
21171;DHT22;10743;52.160;20.910;2022-09-02T17:42:08;34.00;24.90
21171;DHT22;10743;52.160;20.910;2022-09-02T17:44:37;33.90;24.90
21171;DHT22;10743;52.160;20.910;2022-09-02T17:47:08;33.90;25.30
21171;DHT22;10743;52.160;20.910;2022-09-02T17:49:37;33.90;24.90
21171;DHT22;10743;52.160;20.910;2022-09-02T17:52:07;33.80;24.90
21171;DHT22;10743;52.160;20.910;2022-09-02T17:54:36;33.90;25.10
21171;DHT22;10743;52.160;20.910;2022-09-02T18:08:56;33.60;25.60
21171;DHT22;10743;52.160;20.910;2022-09-02T18:11:24;33.50;25.60